Time;durP1;ratioP1;P1;durP2;ratioP2;P2;SDS_P1;SDS_P2;PMS_P1;PMS_P2;Temp;Humidity;BMP_temperature;BMP_pressure;BME280_temperature;BME280_humidity;BME280_pressure;Samples;Min_cycle;Max_cycle;Signal;HPM_P1;HPM_P2
2023/01/10 00:00:35;;;;;;;16.48;5.28;;;4.20;99.90;;;;;;4996883;28;20065;-79
2023/01/10 00:03:09;;;;;;;19.55;4.97;;;4.10;99.90;;;;;;4979597;28;20444;-81
2023/01/10 00:05:36;;;;;;;16.40;4.85;;;4.10;99.90;;;;;;4991007;28;20109;-79
2023/01/10 00:08:02;;;;;;;15.68;4.97;;;4.00;99.90;;;;;;4980950;28;20069;-79
2023/01/10 00:10:28;;;;;;;22.88;5.25;;;4.00;99.90;;;;;;4981550;28;20050;-79
2023/01/10 00:15:38;;;;;;;20.17;5.30;;;3.90;99.90;;;;;;4996951;28;20507;-79
2023/01/10 00:18:04;;;;;;;16.77;4.65;;;3.90;99.90;;;;;;4995243;28;20034;-79
2023/01/10 00:20:30;;;;;;;22.08;4.90;;;4.00;99.90;;;;;;4980428;28;20045;-79
2023/01/10 00:22:56;;;;;;;18.63;4.95;;;4.00;99.90;;;;;;4980273;28;20038;-80
2023/01/10 00:25:22;;;;;;;19.35;5.18;;;4.20;99.90;;;;;;4997388;28;20135;-79
2023/01/10 00:27:52;;;;;;;20.02;6.03;;;4.30;99.90;;;;;;4979646;28;20480;-80
2023/01/10 00:30:18;;;;;;;17.70;6.43;;;4.40;99.90;;;;;;4974158;28;20406;-80
2023/01/10 00:32:44;;;;;;;18.45;5.50;;;4.60;99.90;;;;;;4979827;28;20045;-79
2023/01/10 00:35:11;;;;;;;26.38;6.25;;;4.70;99.90;;;;;;4996824;28;20038;-79
2023/01/10 00:37:38;;;;;;;21.92;6.22;;;4.80;99.90;;;;;;4995973;28;20124;-79
2023/01/10 00:40:08;;;;;;;20.90;6.07;;;4.90;99.90;;;;;;4981145;28;20042;-80
2023/01/10 00:45:19;;;;;;;15.60;4.85;;;5.00;99.90;;;;;;4997819;28;20478;-79
2023/01/10 00:47:45;;;;;;;19.00;5.57;;;5.10;99.90;;;;;;4981471;28;20045;-79
2023/01/10 00:50:10;;;;;;;15.75;4.25;;;5.20;99.90;;;;;;4997741;28;20041;-79
2023/01/10 00:52:36;;;;;;;17.60;4.55;;;5.20;99.90;;;;;;4978517;28;20046;-80
2023/01/10 00:55:03;;;;;;;22.60;5.35;;;5.30;99.90;;;;;;4997194;28;20038;-80
2023/01/10 00:57:28;;;;;;;16.27;4.15;;;5.30;99.90;;;;;;4977629;28;20073;-79
2023/01/10 00:59:54;;;;;;;18.00;4.53;;;5.30;99.90;;;;;;4981582;28;20061;-80
2023/01/10 01:02:20;;;;;;;15.73;4.40;;;5.30;99.90;;;;;;4978801;28;20075;-79
2023/01/10 01:04:45;;;;;;;12.93;3.92;;;5.30;99.90;;;;;;5005560;28;20038;-79
2023/01/10 01:07:11;;;;;;;19.00;4.47;;;5.30;99.90;;;;;;4995977;28;20415;-79
2023/01/10 01:10:25;;;;;;;16.25;4.35;;;5.30;99.90;;;;;;4981398;28;20121;-80
2023/01/10 01:12:23;;;;;;;19.73;4.38;;;5.20;99.90;;;;;;4979263;28;20124;-80
2023/01/10 01:14:48;;;;;;;20.17;4.15;;;5.10;99.90;;;;;;4997790;28;20443;-80
2023/01/10 01:17:14;;;;;;;14.63;3.72;;;5.10;99.90;;;;;;4976761;28;20068;-79
2023/01/10 01:19:40;;;;;;;14.68;3.70;;;5.10;99.90;;;;;;4981609;28;20045;-79
2023/01/10 01:22:05;;;;;;;17.50;4.47;;;5.10;99.90;;;;;;4997007;28;20065;-79
2023/01/10 01:24:31;;;;;;;13.90;3.45;;;5.10;99.90;;;;;;4997647;28;20042;-79
2023/01/10 01:26:57;;;;;;;11.30;3.15;;;5.10;99.90;;;;;;4981246;28;20500;-78
2023/01/10 01:29:23;;;;;;;20.10;4.78;;;5.10;99.90;;;;;;4981660;28;20090;-79
2023/01/10 01:31:49;;;;;;;13.65;3.33;;;5.10;99.90;;;;;;4976987;28;20038;-80
2023/01/10 01:34:15;;;;;;;13.30;3.58;;;5.10;99.90;;;;;;4980768;28;20045;-79
2023/01/10 01:36:40;;;;;;;19.15;3.88;;;5.10;99.90;;;;;;4998154;28;20084;-79
2023/01/10 01:39:06;;;;;;;23.70;3.65;;;5.10;99.90;;;;;;4981072;28;20169;-78
2023/01/10 01:44:18;;;;;;;11.68;3.70;;;5.10;99.90;;;;;;4988928;28;20042;-80
2023/01/10 01:47:01;;;;;;;14.48;3.92;;;5.00;99.90;;;;;;4979405;28;20042;-80
2023/01/10 01:49:29;;;;;;;17.30;3.95;;;5.00;99.90;;;;;;4975387;28;20052;-79
2023/01/10 01:52:01;;;;;;;16.52;3.97;;;5.00;99.90;;;;;;5002637;28;20545;-79
2023/01/10 01:54:29;;;;;;;17.08;4.63;;;4.90;99.90;;;;;;4980433;28;20037;-79
2023/01/10 01:57:07;;;;;;;15.23;4.50;;;5.00;99.90;;;;;;4982258;28;20061;-79
2023/01/10 01:59:40;;;;;;;21.02;4.70;;;5.00;99.90;;;;;;4985940;28;20499;-79
2023/01/10 02:02:20;;;;;;;15.82;4.68;;;5.00;99.90;;;;;;4969563;28;20044;-80
2023/01/10 02:05:02;;;;;;;17.20;4.00;;;5.10;99.90;;;;;;4979851;28;20045;-80
2023/01/10 02:07:33;;;;;;;15.63;4.75;;;5.10;99.90;;;;;;4965020;28;20046;-80
2023/01/10 02:10:16;;;;;;;17.35;4.70;;;5.10;99.90;;;;;;4983797;28;20476;-79
2023/01/10 02:12:43;;;;;;;20.92;4.20;;;5.10;99.90;;;;;;4978936;28;20403;-79
2023/01/10 02:15:10;;;;;;;22.45;4.38;;;5.10;99.90;;;;;;5000372;28;20046;-79
2023/01/10 02:17:36;;;;;;;16.88;4.38;;;5.10;99.90;;;;;;4980611;28;20038;-79
2023/01/10 02:20:09;;;;;;;20.92;4.55;;;5.10;99.90;;;;;;4982069;28;20026;-79
2023/01/10 02:23:22;;;;;;;15.93;4.63;;;5.10;99.90;;;;;;4976511;28;20129;-79
2023/01/10 02:26:10;;;;;;;15.60;3.75;;;5.10;99.90;;;;;;5005349;28;20038;-79
2023/01/10 02:29:01;;;;;;;15.07;4.05;;;5.10;99.90;;;;;;4965272;28;20046;-79
2023/01/10 02:31:43;;;;;;;21.95;4.15;;;5.00;99.90;;;;;;4960747;28;20111;-79
2023/01/10 02:34:35;;;;;;;16.77;3.78;;;5.00;99.90;;;;;;5009298;28;20057;-79
2023/01/10 02:37:38;;;;;;;16.45;4.10;;;5.00;99.90;;;;;;4984514;28;20037;-80
2023/01/10 02:40:29;;;;;;;15.30;4.30;;;5.00;99.90;;;;;;4984262;28;20038;-79
2023/01/10 02:42:58;;;;;;;15.63;3.72;;;5.00;99.90;;;;;;4999928;28;20053;-79
2023/01/10 02:45:29;;;;;;;18.48;4.05;;;5.00;99.90;;;;;;4983931;28;20042;-79
2023/01/10 02:47:55;;;;;;;12.27;3.75;;;5.10;99.90;;;;;;4983876;28;20125;-79
2023/01/10 02:50:42;;;;;;;15.95;4.60;;;5.10;99.90;;;;;;4982872;28;20058;-80
2023/01/10 02:53:20;;;;;;;15.90;3.53;;;5.20;99.90;;;;;;4998184;28;20069;-79
2023/01/10 02:56:11;;;;;;;17.60;4.03;;;5.20;99.90;;;;;;4985008;28;20550;-79
2023/01/10 02:59:02;;;;;;;20.95;3.78;;;5.30;99.90;;;;;;4984394;28;20408;-79
2023/01/10 03:02:23;;;;;;;16.77;3.92;;;5.30;99.90;;;;;;4984352;28;20315;-79
2023/01/10 03:05:21;;;;;;;14.75;3.47;;;5.30;99.90;;;;;;4904258;29;20043;-78
2023/01/10 03:08:11;;;;;;;15.77;3.20;;;5.30;99.90;;;;;;5017388;28;20069;-79
2023/01/10 03:10:59;;;;;;;16.27;4.00;;;5.20;99.90;;;;;;4983764;28;20046;-79
2023/01/10 03:13:24;;;;;;;19.52;4.28;;;5.20;99.90;;;;;;4973098;28;20043;-79
2023/01/10 03:15:53;;;;;;;13.68;4.07;;;5.20;99.90;;;;;;4981351;28;20049;-80
2023/01/10 03:18:33;;;;;;;17.40;4.00;;;5.30;99.90;;;;;;4983675;28;20042;-79
2023/01/10 03:21:02;;;;;;;18.08;3.97;;;5.30;99.90;;;;;;5000665;28;20076;-79
2023/01/10 03:23:31;;;;;;;17.88;4.53;;;5.30;99.90;;;;;;4983561;28;20447;-79
2023/01/10 03:25:57;;;;;;;19.23;4.20;;;5.40;99.90;;;;;;4981287;28;20042;-80
2023/01/10 03:28:31;;;;;;;12.85;3.60;;;5.40;99.90;;;;;;4983745;28;20120;-79
2023/01/10 03:31:06;;;;;;;17.48;4.35;;;5.50;99.90;;;;;;4982500;28;20439;-80
2023/01/10 03:33:33;;;;;;;22.05;4.18;;;5.50;99.90;;;;;;4968287;28;20408;-79
2023/01/10 03:36:04;;;;;;;17.13;3.85;;;5.50;99.90;;;;;;4983062;28;20045;-80
2023/01/10 03:38:49;;;;;;;17.05;4.03;;;5.50;99.90;;;;;;4979314;28;20060;-80
2023/01/10 03:41:32;;;;;;;18.58;4.25;;;5.50;99.90;;;;;;5007328;28;20044;-80
2023/01/10 03:47:05;;;;;;;15.20;4.10;;;5.50;99.90;;;;;;4998763;28;20042;-79
2023/01/10 03:49:33;;;;;;;19.45;4.32;;;5.40;99.90;;;;;;4981411;28;20173;-79
2023/01/10 03:52:00;;;;;;;21.25;4.32;;;5.40;99.90;;;;;;5013901;28;20129;-80
2023/01/10 03:54:27;;;;;;;22.20;4.55;;;5.50;99.90;;;;;;4997262;28;20419;-80
2023/01/10 03:56:52;;;;;;;20.10;4.63;;;5.50;99.90;;;;;;4984431;28;20084;-80
2023/01/10 03:59:22;;;;;;;27.20;4.93;;;5.50;99.90;;;;;;4984653;28;20042;-81
2023/01/10 04:01:47;;;;;;;21.50;4.32;;;5.60;99.90;;;;;;4990156;28;20034;-81
2023/01/10 04:04:13;;;;;;;22.23;3.70;;;5.60;99.90;;;;;;4983869;28;20129;-80
2023/01/10 04:06:39;;;;;;;21.75;4.25;;;5.60;99.90;;;;;;5001700;28;20065;-81
2023/01/10 04:09:05;;;;;;;20.20;4.20;;;5.60;99.90;;;;;;5000336;28;20525;-80
2023/01/10 04:11:31;;;;;;;24.02;4.47;;;5.50;99.90;;;;;;4997493;28;20081;-80
2023/01/10 04:13:56;;;;;;;26.27;4.40;;;5.60;99.90;;;;;;4993398;28;20046;-80
2023/01/10 04:16:22;;;;;;;22.45;4.32;;;5.60;99.90;;;;;;4979859;28;20037;-80
2023/01/10 04:18:47;;;;;;;18.05;3.85;;;5.60;99.90;;;;;;4979481;28;20053;-79
2023/01/10 04:21:13;;;;;;;24.70;4.63;;;5.60;99.90;;;;;;4978706;28;20311;-79
2023/01/10 04:23:38;;;;;;;27.48;4.68;;;5.60;99.90;;;;;;4976211;28;20042;-80
2023/01/10 04:26:04;;;;;;;20.80;4.50;;;5.60;99.90;;;;;;4979319;28;20454;-80
2023/01/10 04:28:30;;;;;;;26.83;5.35;;;5.50;99.90;;;;;;4962986;28;20046;-79
2023/01/10 04:30:55;;;;;;;24.15;4.28;;;5.50;99.90;;;;;;4977991;28;20069;-79
2023/01/10 04:33:21;;;;;;;20.83;4.28;;;5.50;99.90;;;;;;4975781;28;20034;-79
2023/01/10 04:35:48;;;;;;;22.45;4.63;;;5.50;99.90;;;;;;4974921;28;20059;-79
2023/01/10 04:38:14;;;;;;;22.30;4.55;;;5.50;99.90;;;;;;4978872;28;20038;-79
2023/01/10 04:40:40;;;;;;;18.67;4.25;;;5.40;99.90;;;;;;4995597;28;20448;-79
2023/01/10 04:43:06;;;;;;;19.00;3.83;;;5.40;99.90;;;;;;4976928;28;20109;-79
2023/01/10 04:45:32;;;;;;;23.48;4.72;;;5.40;99.90;;;;;;4998898;28;20441;-79
2023/01/10 04:47:58;;;;;;;21.45;4.25;;;5.40;99.90;;;;;;5000997;28;20044;-79
2023/01/10 04:50:25;;;;;;;24.10;4.60;;;5.40;99.90;;;;;;4995663;28;20495;-80
2023/01/10 04:52:50;;;;;;;28.50;4.95;;;5.40;99.90;;;;;;4979114;28;20396;-80
2023/01/10 04:55:16;;;;;;;20.10;4.45;;;5.40;99.90;;;;;;4977075;28;20034;-79
2023/01/10 04:57:41;;;;;;;31.95;5.22;;;5.40;99.90;;;;;;4994958;28;20436;-80
2023/01/10 05:00:08;;;;;;;16.13;4.15;;;5.40;99.90;;;;;;4979609;28;20038;-80
2023/01/10 05:02:34;;;;;;;22.10;4.78;;;5.40;99.90;;;;;;4979247;28;20084;-79
2023/01/10 05:05:00;;;;;;;24.63;5.43;;;5.40;99.90;;;;;;4992667;28;20096;-79
2023/01/10 05:07:26;;;;;;;23.95;5.00;;;5.40;99.90;;;;;;5012588;28;20041;-81
2023/01/10 05:09:51;;;;;;;22.50;4.72;;;5.40;99.90;;;;;;4976153;28;20121;-80
2023/01/10 05:12:17;;;;;;;22.55;5.63;;;5.40;99.90;;;;;;4979422;28;20123;-79
2023/01/10 05:14:42;;;;;;;28.23;5.03;;;5.40;99.90;;;;;;4974981;28;20465;-79
2023/01/10 05:17:08;;;;;;;23.55;4.82;;;5.50;99.90;;;;;;4979412;28;20088;-79
2023/01/10 05:19:34;;;;;;;25.75;4.97;;;5.50;99.90;;;;;;4979526;28;20128;-79
2023/01/10 05:22:00;;;;;;;20.92;4.47;;;5.40;99.90;;;;;;4979148;28;20048;-80
2023/01/10 05:24:25;;;;;;;24.58;4.43;;;5.40;99.90;;;;;;4993882;28;20037;-80
2023/01/10 05:26:51;;;;;;;17.63;4.32;;;5.30;99.90;;;;;;4979990;28;20038;-79
2023/01/10 05:29:16;;;;;;;25.52;5.15;;;5.30;99.90;;;;;;4996170;28;20559;-79
2023/01/10 05:31:42;;;;;;;23.67;5.05;;;5.30;99.90;;;;;;4994302;28;20049;-80
2023/01/10 05:34:11;;;;;;;24.65;5.28;;;5.30;99.90;;;;;;4978121;28;20045;-79
2023/01/10 05:36:37;;;;;;;29.42;5.95;;;5.30;99.90;;;;;;4996353;28;20030;-79
2023/01/10 05:39:03;;;;;;;22.27;4.88;;;5.30;99.90;;;;;;4995304;28;20172;-80
2023/01/10 05:41:28;;;;;;;23.95;5.03;;;5.30;99.90;;;;;;4997909;28;20056;-80
2023/01/10 05:43:54;;;;;;;20.25;4.93;;;5.30;99.90;;;;;;4980127;28;20037;-81
2023/01/10 05:46:19;;;;;;;29.00;5.50;;;5.20;99.90;;;;;;4996009;28;20038;-79
2023/01/10 05:48:45;;;;;;;24.23;5.20;;;5.20;99.90;;;;;;4995918;28;20141;-80
2023/01/10 05:51:10;;;;;;;23.23;5.38;;;5.20;99.90;;;;;;4993243;28;20456;-80
2023/01/10 05:53:36;;;;;;;22.17;5.20;;;5.20;99.90;;;;;;4980648;28;20045;-81
2023/01/10 05:56:02;;;;;;;28.48;5.80;;;5.10;99.90;;;;;;4981682;28;20074;-80
2023/01/10 05:58:29;;;;;;;23.90;5.63;;;5.00;99.90;;;;;;4981385;28;20117;-80
2023/01/10 06:00:56;;;;;;;20.02;4.80;;;5.00;99.90;;;;;;4978434;28;20522;-80
2023/01/10 06:03:22;;;;;;;21.27;4.75;;;5.00;99.90;;;;;;4976266;28;20042;-80
2023/01/10 06:05:47;;;;;;;19.65;4.90;;;4.90;99.90;;;;;;4993737;28;20053;-80
2023/01/10 06:08:13;;;;;;;26.08;4.55;;;4.90;99.90;;;;;;4977628;28;20117;-79
2023/01/10 06:10:39;;;;;;;28.15;5.38;;;4.90;99.90;;;;;;4978196;28;20510;-80
2023/01/10 06:13:04;;;;;;;26.15;5.03;;;4.80;99.90;;;;;;4995180;28;20559;-80
2023/01/10 06:15:31;;;;;;;21.73;4.85;;;4.70;99.90;;;;;;4980620;28;20057;-80
2023/01/10 06:17:56;;;;;;;27.05;4.75;;;4.60;99.90;;;;;;4981949;28;20441;-80
2023/01/10 06:20:22;;;;;;;27.77;4.82;;;4.60;99.90;;;;;;4998690;28;20076;-80
2023/01/10 06:22:47;;;;;;;48.50;5.85;;;4.60;99.90;;;;;;4996956;28;20034;-81
2023/01/10 06:25:13;;;;;;;25.45;6.25;;;4.50;99.90;;;;;;4980491;28;20044;-81
2023/01/10 06:27:40;;;;;;;26.73;6.03;;;4.50;99.90;;;;;;4998027;28;20045;-81
2023/01/10 06:30:06;;;;;;;25.08;5.20;;;4.50;99.90;;;;;;4977531;28;20034;-80
2023/01/10 06:32:32;;;;;;;26.92;5.63;;;4.40;99.90;;;;;;4978299;28;20435;-80
2023/01/10 06:34:57;;;;;;;28.80;6.47;;;4.50;99.90;;;;;;4992751;28;20049;-80
2023/01/10 06:37:23;;;;;;;22.55;5.10;;;4.40;99.90;;;;;;4998380;28;20041;-79
2023/01/10 06:39:50;;;;;;;31.23;6.43;;;4.40;99.90;;;;;;4980060;28;20404;-81
2023/01/10 06:42:16;;;;;;;24.48;6.03;;;4.50;99.90;;;;;;4981648;28;20514;-79
2023/01/10 06:44:41;;;;;;;27.48;6.03;;;4.50;99.90;;;;;;4996811;28;20038;-79
2023/01/10 06:47:07;;;;;;;32.53;6.93;;;4.50;99.90;;;;;;4981363;28;20061;-79
2023/01/10 06:49:32;;;;;;;23.33;6.10;;;4.50;99.90;;;;;;4980039;28;21452;-80
2023/01/10 06:51:58;;;;;;;27.55;6.95;;;4.40;99.90;;;;;;4997673;28;20403;-80
2023/01/10 06:54:23;;;;;;;29.48;7.28;;;4.50;99.90;;;;;;4980231;28;20092;-79
2023/01/10 06:56:49;;;;;;;34.42;7.18;;;4.50;99.90;;;;;;4981751;28;20042;-79
2023/01/10 06:59:15;;;;;;;21.52;6.30;;;4.50;99.90;;;;;;4965742;28;20066;-82
2023/01/10 07:01:43;;;;;;;28.65;7.20;;;4.40;99.90;;;;;;4996457;28;20520;-80
2023/01/10 07:04:08;;;;;;;30.02;6.78;;;4.50;99.90;;;;;;4982619;28;20080;-80
2023/01/10 07:06:38;;;;;;;23.33;6.32;;;4.40;99.90;;;;;;5013990;28;20042;-79
2023/01/10 07:09:08;;;;;;;27.42;6.60;;;4.40;99.90;;;;;;4980996;28;20361;-79
2023/01/10 07:11:34;;;;;;;29.15;7.43;;;4.50;99.90;;;;;;4981065;28;20049;-79
2023/01/10 07:14:00;;;;;;;36.95;7.72;;;4.40;99.90;;;;;;4981242;28;20046;-80
2023/01/10 07:16:26;;;;;;;27.95;6.32;;;4.50;99.90;;;;;;4981337;28;20058;-79
2023/01/10 07:18:52;;;;;;;28.23;6.88;;;4.50;99.90;;;;;;4996783;28;20049;-79
2023/01/10 07:21:18;;;;;;;33.20;6.95;;;4.50;99.90;;;;;;4981001;28;20037;-79
2023/01/10 07:23:49;;;;;;;30.25;7.38;;;4.50;99.90;;;;;;4981348;28;20160;-78
2023/01/10 07:26:16;;;;;;;33.75;8.20;;;4.60;99.90;;;;;;4981388;28;20038;-77
2023/01/10 07:28:43;;;;;;;32.08;7.38;;;4.60;99.90;;;;;;5012927;28;20128;-79
2023/01/10 07:31:10;;;;;;;28.27;6.88;;;4.70;99.90;;;;;;5013859;28;20046;-79
2023/01/10 07:33:36;;;;;;;29.77;6.88;;;4.70;99.90;;;;;;4997501;28;20038;-78
2023/01/10 07:36:01;;;;;;;27.35;7.10;;;4.70;99.90;;;;;;4980112;28;20052;-80
2023/01/10 07:38:27;;;;;;;34.47;6.93;;;4.70;99.90;;;;;;4981097;28;20046;-77
2023/01/10 07:40:53;;;;;;;27.95;7.05;;;4.70;99.90;;;;;;4996945;28;20504;-78
2023/01/10 07:43:18;;;;;;;32.55;7.60;;;4.70;99.90;;;;;;4982641;28;20044;-79
2023/01/10 07:45:44;;;;;;;25.55;6.38;;;4.70;99.90;;;;;;4997249;28;20080;-77
2023/01/10 07:48:10;;;;;;;34.17;6.47;;;4.60;99.90;;;;;;5014301;28;20041;-77
2023/01/10 07:50:36;;;;;;;32.22;7.00;;;4.70;99.90;;;;;;4997196;28;20038;-78
2023/01/10 07:53:03;;;;;;;34.53;7.18;;;4.60;99.90;;;;;;4993256;28;20078;-79
2023/01/10 07:55:29;;;;;;;33.67;7.03;;;4.60;99.90;;;;;;4996053;28;20038;-78
2023/01/10 07:57:55;;;;;;;27.30;6.63;;;4.50;99.90;;;;;;4979484;28;20046;-78
2023/01/10 08:00:21;;;;;;;31.58;7.00;;;4.50;99.90;;;;;;4997136;28;20152;-78
2023/01/10 08:02:51;;;;;;;36.05;7.25;;;4.50;99.90;;;;;;4979938;28;20041;-79
2023/01/10 08:05:17;;;;;;;27.15;6.70;;;4.40;99.90;;;;;;4979254;28;20041;-79
2023/01/10 08:07:43;;;;;;;27.95;7.60;;;4.40;99.90;;;;;;5005051;28;20511;-78
2023/01/10 08:10:09;;;;;;;33.55;8.02;;;4.40;99.90;;;;;;4995124;28;20656;-79
2023/01/10 08:12:35;;;;;;;32.40;7.43;;;4.40;99.90;;;;;;4994672;28;20446;-79
2023/01/10 08:15:00;;;;;;;30.38;7.20;;;4.40;99.90;;;;;;4995433;28;20041;-78
2023/01/10 08:17:26;;;;;;;28.63;7.13;;;4.40;99.90;;;;;;4995646;28;20092;-79
2023/01/10 08:19:52;;;;;;;28.13;7.32;;;4.40;99.90;;;;;;4979323;28;20034;-78
2023/01/10 08:22:17;;;;;;;27.67;7.57;;;4.50;99.90;;;;;;4995342;28;20037;-79
2023/01/10 08:24:43;;;;;;;35.22;8.02;;;4.60;99.90;;;;;;4994889;28;20404;-79
2023/01/10 08:27:09;;;;;;;33.03;8.55;;;4.70;99.90;;;;;;4994791;28;20034;-78
2023/01/10 08:29:34;;;;;;;29.17;7.68;;;4.80;99.90;;;;;;4978981;28;20073;-79
2023/01/10 08:32:00;;;;;;;33.22;9.23;;;4.90;99.90;;;;;;4994397;28;20499;-79
2023/01/10 08:34:26;;;;;;;29.83;8.38;;;5.00;99.90;;;;;;4995039;28;20046;-79
2023/01/10 08:36:53;;;;;;;29.70;8.38;;;5.00;99.90;;;;;;4978863;28;20109;-79
2023/01/10 08:39:21;;;;;;;26.23;8.40;;;5.10;99.90;;;;;;4994370;28;20435;-79
2023/01/10 08:41:47;;;;;;;33.47;7.75;;;5.10;99.90;;;;;;4994144;28;20068;-78
2023/01/10 08:44:14;;;;;;;31.77;8.65;;;5.20;99.90;;;;;;4994658;28;20650;-78
2023/01/10 08:46:40;;;;;;;36.30;8.65;;;5.30;99.90;;;;;;4978607;28;20048;-78
2023/01/10 08:49:06;;;;;;;28.30;7.60;;;5.40;99.90;;;;;;4994579;28;20041;-78
2023/01/10 08:51:32;;;;;;;28.58;8.50;;;5.40;99.90;;;;;;4994126;28;20042;-79
2023/01/10 08:53:57;;;;;;;35.15;7.65;;;5.40;99.90;;;;;;4994555;28;20042;-78
2023/01/10 08:56:23;;;;;;;35.75;8.75;;;5.40;99.90;;;;;;4978267;28;20128;-78
2023/01/10 08:58:48;;;;;;;34.58;8.07;;;5.50;99.90;;;;;;4994521;28;20160;-78
2023/01/10 09:01:14;;;;;;;29.08;7.78;;;5.50;99.90;;;;;;4994929;28;20038;-78
2023/01/10 09:03:40;;;;;;;23.85;6.95;;;5.60;99.90;;;;;;4994640;28;20517;-79
2023/01/10 09:06:07;;;;;;;28.65;7.60;;;5.60;99.90;;;;;;4991658;28;20492;-78
2023/01/10 09:08:33;;;;;;;30.08;8.27;;;5.70;99.90;;;;;;4988756;28;20041;-79
2023/01/10 09:10:59;;;;;;;29.73;7.45;;;5.80;99.90;;;;;;4994576;28;20075;-78
2023/01/10 09:13:26;;;;;;;29.27;7.60;;;5.90;99.90;;;;;;4994603;28;20447;-78
2023/01/10 09:15:52;;;;;;;27.90;7.25;;;5.90;99.90;;;;;;4994739;28;20494;-78
2023/01/10 09:18:17;;;;;;;32.30;7.00;;;6.00;99.90;;;;;;4993688;28;20069;-79
2023/01/10 09:20:44;;;;;;;23.13;7.63;;;6.00;99.90;;;;;;4990865;28;20066;-78
2023/01/10 09:23:18;;;;;;;26.48;7.95;;;6.00;99.90;;;;;;4991519;28;20049;-78
2023/01/10 09:25:45;;;;;;;26.25;7.55;;;6.10;99.90;;;;;;4989773;28;20080;-78
2023/01/10 09:28:11;;;;;;;25.88;6.57;;;6.10;99.90;;;;;;4994087;28;20041;-78
2023/01/10 09:30:36;;;;;;;24.40;6.78;;;6.20;99.90;;;;;;4994295;28;20095;-79
2023/01/10 09:33:03;;;;;;;28.20;7.15;;;6.20;99.90;;;;;;4993387;28;20045;-78
2023/01/10 09:35:30;;;;;;;23.83;6.68;;;6.30;99.90;;;;;;4977956;28;20045;-77
2023/01/10 09:37:57;;;;;;;25.77;7.05;;;6.40;99.90;;;;;;4994037;28;20049;-78
2023/01/10 09:40:51;;;;;;;28.20;7.38;;;6.40;99.90;;;;;;4994254;28;20049;-78
2023/01/10 09:43:52;;;;;;;20.70;6.85;;;6.40;99.90;;;;;;4994265;28;20291;-78
2023/01/10 09:46:40;;;;;;;24.90;7.53;;;6.50;99.90;;;;;;4931877;29;20062;-78
2023/01/10 09:49:24;;;;;;;28.60;7.93;;;6.50;99.90;;;;;;4978781;28;20416;-78
2023/01/10 09:51:51;;;;;;;22.98;7.00;;;6.50;99.90;;;;;;4975024;28;20384;-78
2023/01/10 09:54:38;;;;;;;23.88;8.38;;;6.50;99.90;;;;;;4990729;28;20038;-78
2023/01/10 09:57:05;;;;;;;26.27;8.85;;;6.50;99.90;;;;;;4991130;28;20038;-78
2023/01/10 09:59:36;;;;;;;36.45;9.45;;;6.60;99.90;;;;;;4987990;28;20088;-78
2023/01/10 10:02:19;;;;;;;25.35;9.50;;;6.60;99.90;;;;;;4993990;28;20073;-78
2023/01/10 10:04:58;;;;;;;27.02;10.27;;;6.60;99.90;;;;;;4994287;28;20377;-78
2023/01/10 10:07:24;;;;;;;32.20;11.18;;;6.60;99.90;;;;;;4993779;28;20042;-78
2023/01/10 10:09:50;;;;;;;31.42;12.30;;;6.60;99.90;;;;;;5000202;28;20112;-78
2023/01/10 10:12:42;;;;;;;32.88;12.18;;;6.60;99.90;;;;;;4985868;28;20042;-77
2023/01/10 10:15:36;;;;;;;29.98;12.10;;;6.60;99.90;;;;;;5001790;28;20046;-78
2023/01/10 10:18:22;;;;;;;26.85;11.75;;;6.60;99.90;;;;;;4985167;28;20042;-78
2023/01/10 10:20:48;;;;;;;31.30;12.32;;;6.60;99.90;;;;;;5001607;28;20088;-77
2023/01/10 10:23:45;;;;;;;28.25;11.52;;;6.60;99.90;;;;;;4980491;28;20129;-79
2023/01/10 10:26:33;;;;;;;23.42;11.30;;;6.60;99.90;;;;;;4998985;28;20129;-78
2023/01/10 10:29:20;;;;;;;33.65;13.75;;;6.60;99.90;;;;;;5000523;28;20042;-78
2023/01/10 10:32:23;;;;;;;27.80;11.90;;;6.60;99.90;;;;;;4999958;28;20042;-77
2023/01/10 10:35:00;;;;;;;28.42;12.25;;;6.60;99.90;;;;;;5000181;28;20518;-77
2023/01/10 10:37:39;;;;;;;27.38;12.25;;;6.60;99.90;;;;;;4979244;28;20026;-78
2023/01/10 10:40:15;;;;;;;29.63;11.10;;;6.60;99.90;;;;;;4999117;28;20042;-78
2023/01/10 10:42:46;;;;;;;29.38;11.40;;;6.60;99.90;;;;;;4999203;28;20046;-78
2023/01/10 10:45:23;;;;;;;29.05;11.60;;;6.60;99.90;;;;;;4982106;28;20041;-78
2023/01/10 10:47:56;;;;;;;23.05;10.75;;;6.70;99.90;;;;;;4982089;28;20037;-78
2023/01/10 10:50:50;;;;;;;28.65;11.38;;;6.70;99.90;;;;;;4998085;28;20065;-78
2023/01/10 10:53:17;;;;;;;26.35;11.15;;;6.70;99.90;;;;;;4953055;28;20050;-77
2023/01/10 10:55:43;;;;;;;26.33;10.57;;;6.70;99.90;;;;;;4981889;28;20042;-77
2023/01/10 10:58:13;;;;;;;29.63;9.95;;;6.70;99.90;;;;;;5002010;28;20034;-78
2023/01/10 11:00:40;;;;;;;19.92;9.45;;;6.60;99.90;;;;;;5002477;28;20551;-77
2023/01/10 11:03:41;;;;;;;26.65;9.63;;;6.60;99.90;;;;;;5001464;28;20049;-77
2023/01/10 11:06:08;;;;;;;31.80;10.15;;;6.60;99.90;;;;;;5004659;28;20487;-77
2023/01/10 11:08:43;;;;;;;20.23;8.60;;;6.60;99.90;;;;;;4987833;28;20064;-77
2023/01/10 11:11:20;;;;;;;26.23;8.20;;;6.70;99.90;;;;;;4985352;28;20089;-77
2023/01/10 11:13:54;;;;;;;23.67;7.72;;;6.60;99.90;;;;;;4997618;28;20039;-77
2023/01/10 11:16:26;;;;;;;22.58;7.22;;;6.60;99.90;;;;;;4986425;28;20073;-78
2023/01/10 11:19:15;;;;;;;23.00;7.43;;;6.60;99.90;;;;;;5011223;28;20044;-78
2023/01/10 11:21:44;;;;;;;21.08;7.25;;;6.70;99.90;;;;;;5002853;28;20070;-77
2023/01/10 11:24:41;;;;;;;20.48;7.57;;;6.60;99.90;;;;;;5001495;28;20046;-78
2023/01/10 11:27:32;;;;;;;27.95;7.28;;;6.60;99.90;;;;;;4999155;28;20065;-78
2023/01/10 11:30:35;;;;;;;20.83;8.10;;;6.60;99.90;;;;;;5015085;28;20396;-77
2023/01/10 11:33:06;;;;;;;22.42;7.40;;;6.60;99.90;;;;;;4983456;28;20045;-77
2023/01/10 11:38:44;;;;;;;25.20;7.00;;;6.60;99.90;;;;;;4999016;28;20614;-77
2023/01/10 11:41:16;;;;;;;23.20;7.57;;;6.60;99.90;;;;;;4976183;28;20125;-77
2023/01/10 11:43:41;;;;;;;23.10;6.80;;;6.60;99.90;;;;;;4979660;28;20129;-79
2023/01/10 11:46:20;;;;;;;23.90;7.50;;;6.60;99.90;;;;;;4980917;28;20069;-78
2023/01/10 11:49:05;;;;;;;22.75;6.68;;;6.60;99.90;;;;;;4985494;28;20042;-78
2023/01/10 11:51:43;;;;;;;21.08;6.75;;;6.60;99.90;;;;;;5007817;28;20068;-80
2023/01/10 11:54:23;;;;;;;19.75;6.15;;;6.60;99.90;;;;;;5002246;28;20065;-81
2023/01/10 11:56:59;;;;;;;23.25;6.00;;;6.60;99.90;;;;;;4998006;28;20522;-80
2023/01/10 11:59:26;;;;;;;26.98;6.40;;;6.60;99.90;;;;;;4980547;28;20555;-81
2023/01/10 12:02:09;;;;;;;22.17;6.68;;;6.60;99.90;;;;;;4997100;28;20038;-79
2023/01/10 12:04:43;;;;;;;24.90;5.97;;;6.50;99.90;;;;;;4992558;28;20046;-81
2023/01/10 12:07:10;;;;;;;22.83;6.18;;;6.50;99.90;;;;;;4984285;28;20196;-80
2023/01/10 12:09:52;;;;;;;21.70;5.68;;;6.50;99.90;;;;;;4987652;28;20038;-79
2023/01/10 12:12:21;;;;;;;23.08;6.15;;;6.50;99.90;;;;;;5001071;28;20053;-80
2023/01/10 12:14:49;;;;;;;23.20;6.78;;;6.50;99.90;;;;;;4980193;28;20127;-79
2023/01/10 12:17:34;;;;;;;22.73;5.63;;;6.50;99.90;;;;;;4981652;28;20060;-78
2023/01/10 12:20:02;;;;;;;19.02;5.95;;;6.50;99.90;;;;;;4982915;28;20057;-78
2023/01/10 12:22:34;;;;;;;26.20;6.57;;;6.50;99.90;;;;;;4982509;28;20038;-82
2023/01/10 12:25:07;;;;;;;19.42;6.20;;;6.50;99.90;;;;;;4997840;28;20121;-77
2023/01/10 12:27:33;;;;;;;27.83;6.25;;;6.50;99.90;;;;;;4995150;28;20038;-77
2023/01/10 12:30:37;;;;;;;18.42;6.07;;;6.50;99.90;;;;;;4993924;28;20052;-76
2023/01/10 12:33:09;;;;;;;25.42;6.03;;;6.50;99.90;;;;;;4956267;28;20069;-75
2023/01/10 12:35:35;;;;;;;22.08;6.35;;;6.50;99.90;;;;;;4981369;28;20029;-76
2023/01/10 12:38:05;;;;;;;21.25;6.43;;;6.50;99.90;;;;;;4979127;28;20400;-76
2023/01/10 12:40:50;;;;;;;21.00;5.45;;;6.50;99.90;;;;;;4993797;28;20116;-76
2023/01/10 12:46:25;;;;;;;24.88;6.13;;;6.40;99.90;;;;;;4992319;28;20054;-77
2023/01/10 12:49:17;;;;;;;23.25;5.43;;;6.40;99.90;;;;;;4983512;28;20076;-77
2023/01/10 12:51:46;;;;;;;22.45;5.78;;;6.40;99.90;;;;;;4988994;28;20386;-77
2023/01/10 12:54:19;;;;;;;23.05;5.47;;;6.40;99.90;;;;;;5000966;28;20071;-77
2023/01/10 12:56:46;;;;;;;17.60;5.55;;;6.40;99.90;;;;;;5023843;28;20128;-78
2023/01/10 12:59:36;;;;;;;22.15;4.68;;;6.40;99.90;;;;;;4986751;28;20517;-77
2023/01/10 13:02:03;;;;;;;17.52;5.22;;;6.40;99.90;;;;;;5043340;28;20034;-76
2023/01/10 13:04:33;;;;;;;18.80;5.30;;;6.40;99.90;;;;;;4995024;28;20113;-76
2023/01/10 13:07:02;;;;;;;21.85;5.40;;;6.30;99.90;;;;;;4980318;28;20046;-79
2023/01/10 13:09:47;;;;;;;19.58;5.72;;;6.40;99.90;;;;;;5000866;28;20064;-80
2023/01/10 13:12:23;;;;;;;25.05;5.57;;;6.40;99.90;;;;;;5008108;28;20061;-80
2023/01/10 13:15:08;;;;;;;21.20;5.75;;;6.30;99.90;;;;;;4989999;28;20042;-79
2023/01/10 13:17:43;;;;;;;24.30;5.10;;;6.30;99.90;;;;;;4991968;28;20065;-78
2023/01/10 13:20:15;;;;;;;15.10;4.90;;;6.30;99.90;;;;;;4993605;28;20038;-80
2023/01/10 13:22:55;;;;;;;17.05;4.75;;;6.30;99.90;;;;;;4994804;28;20037;-79